createdAt,value
2022-09-24T00:01:16.445Z,11.10
2022-09-24T00:03:47.540Z,11.10
2022-09-24T00:06:14.327Z,11.10
2022-09-24T00:08:41.901Z,11.10
2022-09-24T00:11:12.951Z,11.10
2022-09-24T00:13:39.764Z,11.10
2022-09-24T00:16:12.320Z,11.00
2022-09-24T00:18:39.273Z,11.00
2022-09-24T00:21:19.230Z,11.00
2022-09-24T00:23:49.339Z,11.00
2022-09-24T00:26:34.869Z,11.00
2022-09-24T00:29:01.820Z,10.90
2022-09-24T00:31:28.663Z,10.90
2022-09-24T00:33:55.384Z,10.90
2022-09-24T00:36:22.747Z,10.80
2022-09-24T00:38:51.272Z,10.80
2022-09-24T00:41:20.054Z,10.70
2022-09-24T00:43:47.917Z,10.70
2022-09-24T00:46:18.039Z,10.60
2022-09-24T00:48:45.741Z,10.50
2022-09-24T00:51:14.057Z,10.50
2022-09-24T00:53:41.430Z,10.50
2022-09-24T00:56:10.011Z,10.40
2022-09-24T00:58:37.138Z,10.40
2022-09-24T01:01:05.166Z,10.30
2022-09-24T01:03:33.355Z,10.30
2022-09-24T01:05:59.981Z,10.20
2022-09-24T01:08:26.738Z,10.20
2022-09-24T01:10:56.401Z,10.20
2022-09-24T01:13:43.655Z,10.20
2022-09-24T01:16:14.367Z,10.20
2022-09-24T01:18:43.994Z,10.20
2022-09-24T01:21:16.731Z,10.10
2022-09-24T01:24:02.160Z,10.10
2022-09-24T01:26:48.154Z,10.00
2022-09-24T01:29:28.293Z,10.00
2022-09-24T01:32:06.761Z,9.90
2022-09-24T01:34:43.147Z,9.90
2022-09-24T01:37:09.839Z,9.90
2022-09-24T01:39:37.822Z,9.90
2022-09-24T01:42:05.332Z,9.90
2022-09-24T01:44:34.168Z,9.90
2022-09-24T01:47:01.044Z,9.90
2022-09-24T01:49:28.251Z,9.90
2022-09-24T01:51:58.271Z,10.00
2022-09-24T01:54:33.064Z,10.00
2022-09-24T01:57:05.524Z,10.00
2022-09-24T01:59:36.478Z,10.10
2022-09-24T02:02:10.307Z,10.10
2022-09-24T02:04:41.906Z,10.10
2022-09-24T02:07:15.240Z,10.10
2022-09-24T02:10:31.951Z,10.10
2022-09-24T02:14:14.046Z,10.10
2022-09-24T02:16:46.370Z,10.10
2022-09-24T02:19:15.079Z,10.10
2022-09-24T02:21:42.337Z,10.00
2022-09-24T02:24:29.345Z,9.90
2022-09-24T02:26:57.435Z,9.90
2022-09-24T02:29:24.408Z,9.80
2022-09-24T02:31:52.657Z,9.70
2022-09-24T02:34:20.889Z,9.70
2022-09-24T02:36:52.526Z,9.60
2022-09-24T02:39:19.628Z,9.60
2022-09-24T02:41:49.690Z,9.60
2022-09-24T02:44:17.119Z,9.50
2022-09-24T02:46:44.292Z,9.50
2022-09-24T02:49:11.791Z,9.50
2022-09-24T02:51:39.064Z,9.50
2022-09-24T02:54:05.975Z,9.50
2022-09-24T02:56:32.899Z,9.60
2022-09-24T02:59:01.283Z,9.60
2022-09-24T03:01:28.069Z,9.60
2022-09-24T03:03:55.073Z,9.50
2022-09-24T03:06:21.741Z,9.50
2022-09-24T03:08:48.422Z,9.50
2022-09-24T03:11:18.736Z,9.40
2022-09-24T03:13:45.849Z,9.30
2022-09-24T03:16:12.521Z,9.30
2022-09-24T03:18:39.232Z,9.20
2022-09-24T03:21:07.187Z,9.20
2022-09-24T03:23:34.589Z,9.10
2022-09-24T03:26:01.408Z,9.10
2022-09-24T03:28:28.143Z,9.10
2022-09-24T03:31:01.290Z,9.00
2022-09-24T03:33:27.995Z,9.10
2022-09-24T03:36:18.147Z,9.10
2022-09-24T03:38:45.993Z,9.20
2022-09-24T03:41:13.087Z,9.20
2022-09-24T03:43:39.734Z,9.20
2022-09-24T03:46:06.957Z,9.20
2022-09-24T03:48:34.738Z,9.20
2022-09-24T03:51:05.957Z,9.20
2022-09-24T03:53:32.740Z,9.20
2022-09-24T03:55:59.894Z,9.20
2022-09-24T03:58:26.752Z,9.20
2022-09-24T04:00:53.924Z,9.20
2022-09-24T04:03:21.397Z,9.20
2022-09-24T04:05:50.665Z,9.20
2022-09-24T04:08:19.092Z,9.20
2022-09-24T04:10:46.520Z,9.10
2022-09-24T04:13:13.559Z,8.90
2022-09-24T04:15:40.384Z,8.80
2022-09-24T04:18:07.508Z,8.60
2022-09-24T04:20:35.167Z,8.50
2022-09-24T04:23:01.995Z,8.40
2022-09-24T04:25:30.630Z,8.40
2022-09-24T04:27:58.914Z,8.40
2022-09-24T04:30:26.210Z,8.40
2022-09-24T04:32:52.881Z,8.50
2022-09-24T04:35:20.577Z,8.60
2022-09-24T04:37:47.925Z,8.70
2022-09-24T04:40:16.191Z,8.80
2022-09-24T04:42:44.865Z,8.90
2022-09-24T04:45:12.069Z,9.00
2022-09-24T04:47:40.599Z,9.10
2022-09-24T04:50:08.184Z,9.20
2022-09-24T04:52:34.872Z,9.30
2022-09-24T04:55:01.780Z,9.30
2022-09-24T04:57:29.498Z,9.40
2022-09-24T04:59:56.074Z,9.40
2022-09-24T05:02:24.138Z,9.50
2022-09-24T05:04:50.923Z,9.50
2022-09-24T05:07:17.732Z,9.50
2022-09-24T05:09:44.335Z,9.50
2022-09-24T05:12:11.403Z,9.50
2022-09-24T05:14:38.054Z,9.40
2022-09-24T05:17:04.775Z,9.40
2022-09-24T05:19:31.636Z,9.40
2022-09-24T05:21:59.136Z,9.40
2022-09-24T05:24:25.742Z,9.40
2022-09-24T05:27:10.944Z,9.40
2022-09-24T05:29:42.337Z,9.50
2022-09-24T05:32:13.452Z,9.50
2022-09-24T05:34:41.371Z,9.50
2022-09-24T05:37:07.942Z,9.50
2022-09-24T05:39:34.643Z,9.50
2022-09-24T05:42:03.691Z,9.50
2022-09-24T05:44:31.145Z,9.50
2022-09-24T05:46:58.047Z,9.40
2022-09-24T05:49:24.776Z,9.40
2022-09-24T05:51:51.455Z,9.30
2022-09-24T05:54:18.541Z,9.30
2022-09-24T05:56:45.618Z,9.30
2022-09-24T05:59:12.485Z,9.30
2022-09-24T06:01:39.269Z,9.30
2022-09-24T06:04:08.855Z,9.30
2022-09-24T06:06:36.036Z,9.40
2022-09-24T06:09:03.286Z,9.40
2022-09-24T06:11:39.993Z,9.50
2022-09-24T06:14:08.987Z,9.50
2022-09-24T06:16:35.909Z,9.80
2022-09-24T06:19:02.753Z,10.20
2022-09-24T06:21:29.484Z,10.60
2022-09-24T06:23:56.291Z,11.00
2022-09-24T06:26:23.061Z,11.50
2022-09-24T06:28:50.048Z,12.10
2022-09-24T06:31:16.905Z,12.80
2022-09-24T06:33:43.683Z,13.40
2022-09-24T06:36:10.312Z,14.00
2022-09-24T06:38:39.422Z,14.70
2022-09-24T06:41:06.388Z,15.20
2022-09-24T06:43:34.035Z,15.70
2022-09-24T06:46:01.247Z,16.10
2022-09-24T06:48:28.079Z,16.10
2022-09-24T06:50:56.283Z,15.90
2022-09-24T06:53:23.109Z,15.50
2022-09-24T06:55:49.752Z,15.10
2022-09-24T06:58:20.879Z,14.80
2022-09-24T07:00:58.995Z,14.50
2022-09-24T07:03:26.992Z,14.30
2022-09-24T07:05:53.619Z,14.10
2022-09-24T07:08:20.501Z,14.00
2022-09-24T07:10:49.209Z,13.90
2022-09-24T07:13:16.161Z,13.90
2022-09-24T07:15:43.257Z,13.90
2022-09-24T07:18:10.601Z,13.90
2022-09-24T07:20:37.599Z,13.90
2022-09-24T07:23:08.461Z,13.90
2022-09-24T07:25:35.833Z,13.90
2022-09-24T07:28:03.930Z,13.90
2022-09-24T07:30:31.070Z,14.00
2022-09-24T07:32:57.867Z,14.00
2022-09-24T07:35:24.935Z,14.10
2022-09-24T07:38:01.953Z,14.00
2022-09-24T07:40:29.374Z,14.00
2022-09-24T07:42:56.370Z,14.00
2022-09-24T07:45:23.797Z,13.90
2022-09-24T07:48:04.394Z,13.90
2022-09-24T07:50:32.652Z,14.00
2022-09-24T07:53:00.530Z,14.00
2022-09-24T07:55:27.394Z,13.90
2022-09-24T07:57:54.756Z,13.90
2022-09-24T08:00:22.247Z,14.00
2022-09-24T08:02:48.998Z,14.20
2022-09-24T08:05:17.542Z,14.40
2022-09-24T08:07:50.982Z,14.90
2022-09-24T08:10:17.743Z,15.40
2022-09-24T08:12:44.552Z,15.90
2022-09-24T08:15:11.394Z,16.40
2022-09-24T08:17:38.101Z,16.90
2022-09-24T08:20:05.272Z,17.50
2022-09-24T08:22:32.068Z,17.90
2022-09-24T08:24:58.775Z,18.40
2022-09-24T08:27:25.457Z,19.20
2022-09-24T08:29:52.165Z,20.40
2022-09-24T08:32:18.976Z,22.20
2022-09-24T08:34:45.672Z,23.70
2022-09-24T08:37:13.411Z,24.50
2022-09-24T08:39:40.163Z,24.60
2022-09-24T08:42:10.919Z,24.60
2022-09-24T08:45:03.340Z,24.80
2022-09-24T08:47:36.436Z,25.20
2022-09-24T08:50:07.129Z,25.50
2022-09-24T08:52:42.669Z,25.70
2022-09-24T08:55:14.997Z,25.20
2022-09-24T08:57:48.303Z,24.30
2022-09-24T09:00:15.559Z,23.40
2022-09-24T09:02:48.155Z,22.40
2022-09-24T09:05:14.987Z,22.20
2022-09-24T09:07:48.518Z,23.40
2022-09-24T09:10:17.878Z,24.90
2022-09-24T09:12:46.262Z,26.50
2022-09-24T09:15:13.122Z,27.90
2022-09-24T09:17:42.158Z,29.10
2022-09-24T09:20:18.024Z,29.70
2022-09-24T09:22:47.327Z,29.40
2022-09-24T09:25:25.477Z,28.60
2022-09-24T09:27:58.387Z,27.80
2022-09-24T09:30:25.150Z,27.90
2022-09-24T09:33:00.296Z,28.50
2022-09-24T09:35:33.180Z,29.80
2022-09-24T09:38:17.631Z,31.10
2022-09-24T09:40:47.383Z,31.80
2022-09-24T09:43:14.413Z,32.60
2022-09-24T09:46:00.104Z,32.70
2022-09-24T09:48:30.989Z,32.60
2022-09-24T09:51:06.035Z,32.80
2022-09-24T09:53:32.980Z,32.90
2022-09-24T09:56:01.350Z,33.50
2022-09-24T09:58:28.969Z,34.10
2022-09-24T10:01:15.584Z,34.30
2022-09-24T10:03:46.533Z,34.00
2022-09-24T10:06:26.329Z,34.00
2022-09-24T10:08:53.493Z,34.50
2022-09-24T10:11:22.187Z,35.30
2022-09-24T10:14:01.494Z,35.60
2022-09-24T10:16:28.241Z,35.50
2022-09-24T10:18:54.882Z,35.50
2022-09-24T10:21:39.867Z,35.80
2022-09-24T10:24:11.865Z,36.30
2022-09-24T10:26:44.808Z,36.90
2022-09-24T10:29:41.154Z,37.30
2022-09-24T10:32:14.854Z,37.00
2022-09-24T10:34:41.816Z,36.10
2022-09-24T10:37:14.919Z,35.60
2022-09-24T10:39:41.849Z,35.20
2022-09-24T10:42:25.037Z,34.60
2022-09-24T10:44:53.982Z,34.20
2022-09-24T10:47:41.202Z,34.20
2022-09-24T10:50:11.238Z,34.50
2022-09-24T10:52:40.596Z,34.70
2022-09-24T10:55:15.089Z,34.90
2022-09-24T10:57:52.469Z,34.50
2022-09-24T11:00:20.519Z,33.80
2022-09-24T11:03:04.063Z,33.70
2022-09-24T11:05:33.200Z,34.00
2022-09-24T11:08:11.755Z,34.40
2022-09-24T11:10:40.668Z,34.00
2022-09-24T11:13:28.105Z,33.60
2022-09-24T11:16:13.687Z,33.40
2022-09-24T11:19:06.583Z,33.00
2022-09-24T11:21:44.414Z,32.10
2022-09-24T11:24:18.975Z,30.70
2022-09-24T11:26:48.370Z,29.60
2022-09-24T11:29:15.209Z,28.80
2022-09-24T11:31:47.917Z,28.50
2022-09-24T11:34:37.740Z,28.30
2022-09-24T11:37:04.587Z,28.10
2022-09-24T11:39:40.013Z,27.60
2022-09-24T11:42:16.697Z,27.20
2022-09-24T11:44:46.357Z,26.60
2022-09-24T11:47:36.831Z,26.20
2022-09-24T11:50:06.394Z,26.30
2022-09-24T11:52:41.316Z,28.00
2022-09-24T11:55:10.853Z,29.80
2022-09-24T11:57:40.154Z,31.10
2022-09-24T12:00:12.600Z,31.50
2022-09-24T12:03:04.154Z,31.30
2022-09-24T12:05:30.893Z,31.30
2022-09-24T12:08:04.192Z,31.20
2022-09-24T12:10:36.929Z,31.10
2022-09-24T12:13:13.035Z,31.30
2022-09-24T12:15:48.412Z,31.40
2022-09-24T12:18:17.751Z,31.60
2022-09-24T12:20:53.598Z,31.50
2022-09-24T12:23:23.885Z,31.60
2022-09-24T12:25:53.605Z,31.60
2022-09-24T12:28:40.654Z,31.60
2022-09-24T12:31:31.442Z,31.50
2022-09-24T12:34:03.623Z,30.40
2022-09-24T12:36:38.190Z,29.60
2022-09-24T12:39:08.053Z,29.60
2022-09-24T12:41:35.967Z,30.10
2022-09-24T12:44:06.097Z,30.70
2022-09-24T12:46:50.800Z,31.70
2022-09-24T12:49:26.268Z,33.00
2022-09-24T12:51:53.885Z,33.70
2022-09-24T12:54:24.405Z,34.00
2022-09-24T12:56:51.624Z,34.10
2022-09-24T12:59:25.912Z,34.10
2022-09-24T13:01:52.704Z,33.50
2022-09-24T13:04:19.853Z,32.20
2022-09-24T13:06:48.298Z,31.80
2022-09-24T13:09:30.204Z,31.50
2022-09-24T13:12:04.839Z,31.00
2022-09-24T13:14:33.248Z,30.80
2022-09-24T13:17:05.178Z,30.40
2022-09-24T13:19:37.803Z,29.30
2022-09-24T13:22:04.896Z,28.00
2022-09-24T13:24:34.165Z,26.60
2022-09-24T13:27:21.536Z,25.40
2022-09-24T13:29:52.724Z,24.50
2022-09-24T13:32:21.489Z,23.70
2022-09-24T13:34:50.497Z,23.20
2022-09-24T13:37:20.878Z,23.00
2022-09-24T13:39:51.402Z,22.80
2022-09-24T13:42:24.153Z,22.60
2022-09-24T13:44:55.762Z,22.40
2022-09-24T13:47:30.445Z,22.20
2022-09-24T13:50:03.753Z,22.10
2022-09-24T13:52:33.648Z,22.00
2022-09-24T13:55:03.223Z,21.90
2022-09-24T13:57:30.287Z,21.90
2022-09-24T14:00:09.366Z,21.90
2022-09-24T14:02:38.343Z,21.80
2022-09-24T14:05:07.737Z,21.70
2022-09-24T14:07:34.529Z,21.50
2022-09-24T14:10:02.338Z,21.40
2022-09-24T14:12:28.980Z,21.20
2022-09-24T14:14:58.065Z,21.10
2022-09-24T14:17:24.717Z,21.00
2022-09-24T14:19:55.414Z,21.00
2022-09-24T14:22:35.196Z,21.00
2022-09-24T14:25:04.211Z,21.20
2022-09-24T14:27:31.535Z,21.30
2022-09-24T14:30:00.087Z,21.20
2022-09-24T14:32:28.923Z,21.10
2022-09-24T14:35:00.350Z,21.00
2022-09-24T14:37:30.742Z,20.90
2022-09-24T14:39:58.808Z,20.90
2022-09-24T14:42:29.611Z,20.90
2022-09-24T14:44:56.517Z,21.00
2022-09-24T14:47:27.767Z,21.00
2022-09-24T14:49:55.027Z,21.00
2022-09-24T14:52:26.515Z,21.20
2022-09-24T14:55:12.181Z,21.20
2022-09-24T14:57:38.828Z,21.20
2022-09-24T15:00:38.031Z,21.30
2022-09-24T15:03:12.127Z,21.20
2022-09-24T15:05:38.957Z,21.00
2022-09-24T15:08:27.421Z,20.90
2022-09-24T15:10:55.129Z,20.70
2022-09-24T15:13:23.213Z,20.50
2022-09-24T15:16:00.578Z,20.40
2022-09-24T15:18:27.308Z,20.30
2022-09-24T15:20:54.066Z,20.20
2022-09-24T15:23:20.749Z,20.10
2022-09-24T15:25:47.373Z,20.00
2022-09-24T15:28:14.259Z,19.90
2022-09-24T15:30:42.078Z,19.80
2022-09-24T15:33:12.660Z,19.70
2022-09-24T15:35:40.860Z,19.60
2022-09-24T15:38:13.847Z,19.50
2022-09-24T15:40:42.239Z,19.40
2022-09-24T15:43:24.519Z,19.20
2022-09-24T15:45:51.199Z,19.00
2022-09-24T15:48:17.848Z,18.90
2022-09-24T15:50:45.750Z,18.80
2022-09-24T15:53:17.446Z,18.80
2022-09-24T15:55:45.520Z,18.80
2022-09-24T15:58:18.564Z,18.70
2022-09-24T16:00:46.558Z,18.80
2022-09-24T16:03:40.330Z,18.80
2022-09-24T16:06:10.080Z,18.90
2022-09-24T16:08:36.746Z,19.10
2022-09-24T16:11:08.839Z,19.30
2022-09-24T16:13:36.372Z,19.50
2022-09-24T16:16:06.091Z,19.50
2022-09-24T16:18:32.805Z,19.40
2022-09-24T16:20:59.611Z,19.30
2022-09-24T16:23:26.458Z,19.20
2022-09-24T16:25:57.485Z,19.20
2022-09-24T16:28:24.872Z,19.10
2022-09-24T16:30:51.734Z,19.00
2022-09-24T16:33:18.549Z,18.90
2022-09-24T16:35:45.364Z,18.80
2022-09-24T16:38:12.255Z,18.70
2022-09-24T16:40:39.168Z,18.60
2022-09-24T16:43:06.146Z,18.50
2022-09-24T16:45:32.858Z,18.40
2022-09-24T16:47:59.850Z,18.30
2022-09-24T16:50:26.914Z,18.20
2022-09-24T16:52:57.371Z,18.10
2022-09-24T16:55:24.180Z,17.90
2022-09-24T16:57:51.822Z,17.80
2022-09-24T17:00:18.694Z,17.60
2022-09-24T17:02:45.356Z,17.50
2022-09-24T17:05:12.082Z,17.40
2022-09-24T17:07:38.747Z,17.30
2022-09-24T17:10:15.753Z,17.10
2022-09-24T17:12:43.934Z,17.00
2022-09-24T17:15:11.236Z,16.80
2022-09-24T17:17:45.606Z,16.80
2022-09-24T17:20:15.835Z,16.60
2022-09-24T17:22:42.665Z,16.40
2022-09-24T17:25:09.313Z,16.30
2022-09-24T17:27:36.136Z,16.20
2022-09-24T17:30:03.891Z,16.10
2022-09-24T17:32:30.625Z,16.00
2022-09-24T17:34:57.330Z,15.90
2022-09-24T17:37:23.988Z,15.80
2022-09-24T17:39:50.651Z,15.70
2022-09-24T17:42:17.297Z,15.60
2022-09-24T17:44:43.957Z,15.60
2022-09-24T17:47:10.653Z,15.50
2022-09-24T17:49:37.711Z,15.40
2022-09-24T17:52:04.724Z,15.30
2022-09-24T17:54:31.455Z,15.30
2022-09-24T17:56:58.090Z,15.20
2022-09-24T17:59:27.016Z,15.20
2022-09-24T18:01:53.955Z,15.10
2022-09-24T18:04:21.093Z,15.00
2022-09-24T18:06:48.679Z,15.00
2022-09-24T18:09:16.198Z,14.90
2022-09-24T18:11:44.525Z,14.90
2022-09-24T18:14:14.671Z,14.80
2022-09-24T18:16:41.452Z,14.80
2022-09-24T18:19:09.101Z,14.80
2022-09-24T18:21:35.863Z,14.80
2022-09-24T18:24:02.762Z,14.70
2022-09-24T18:26:32.578Z,14.70
2022-09-24T18:29:00.131Z,14.60
2022-09-24T18:31:28.209Z,14.60
2022-09-24T18:33:55.875Z,14.60
2022-09-24T18:36:24.006Z,14.60
2022-09-24T18:38:50.766Z,14.60
2022-09-24T18:41:21.755Z,14.60
2022-09-24T18:43:48.571Z,14.60
2022-09-24T18:46:15.971Z,14.50
2022-09-24T18:48:43.598Z,14.50
2022-09-24T18:51:17.840Z,14.50
2022-09-24T18:53:44.962Z,14.40
2022-09-24T18:56:11.785Z,14.40
2022-09-24T18:58:38.660Z,14.40
2022-09-24T19:01:09.401Z,14.40
2022-09-24T19:03:37.595Z,14.40
2022-09-24T19:06:05.736Z,14.40
2022-09-24T19:08:33.742Z,14.40
2022-09-24T19:11:08.000Z,14.40
2022-09-24T19:13:36.851Z,14.30
2022-09-24T19:16:04.905Z,14.30
2022-09-24T19:18:32.572Z,14.30
2022-09-24T19:20:59.325Z,14.30
2022-09-24T19:23:26.102Z,14.30
2022-09-24T19:25:52.962Z,14.30
2022-09-24T19:28:19.900Z,14.20
2022-09-24T19:30:47.653Z,14.20
2022-09-24T19:33:15.910Z,14.20
2022-09-24T19:35:51.960Z,14.20
2022-09-24T19:38:18.628Z,14.10
2022-09-24T19:40:55.126Z,14.10
2022-09-24T19:43:22.413Z,14.00
2022-09-24T19:45:56.313Z,14.00
2022-09-24T19:48:23.099Z,14.00
2022-09-24T19:50:49.773Z,13.90
2022-09-24T19:53:16.713Z,13.90
2022-09-24T19:55:43.827Z,13.90
2022-09-24T19:58:10.647Z,13.80
2022-09-24T20:00:38.996Z,13.80
2022-09-24T20:03:05.867Z,13.70
2022-09-24T20:05:33.503Z,13.70
2022-09-24T20:08:00.904Z,13.70
2022-09-24T20:10:27.843Z,13.70
2022-09-24T20:12:54.609Z,13.60
2022-09-24T20:15:22.258Z,13.60
2022-09-24T20:17:49.479Z,13.60
2022-09-24T20:20:16.163Z,13.50
2022-09-24T20:22:43.427Z,13.50
2022-09-24T20:25:11.600Z,13.50
2022-09-24T20:27:56.325Z,13.50
2022-09-24T20:30:23.828Z,13.50
2022-09-24T20:32:51.003Z,13.40
2022-09-24T20:35:17.771Z,13.40
2022-09-24T20:37:44.819Z,13.40
2022-09-24T20:40:11.749Z,13.30
2022-09-24T20:42:38.848Z,13.30
2022-09-24T20:45:06.923Z,13.30
2022-09-24T20:47:33.678Z,13.20
2022-09-24T20:50:00.642Z,13.10
2022-09-24T20:52:27.286Z,13.10
2022-09-24T20:54:54.106Z,13.10
2022-09-24T20:57:20.777Z,13.00
2022-09-24T20:59:49.129Z,13.00
2022-09-24T21:02:16.901Z,13.00
2022-09-24T21:04:44.436Z,12.90
2022-09-24T21:07:11.271Z,12.90
2022-09-24T21:09:38.146Z,12.80
2022-09-24T21:12:04.930Z,12.80
2022-09-24T21:14:35.528Z,12.80
2022-09-24T21:17:03.006Z,12.80
2022-09-24T21:19:32.437Z,12.70
2022-09-24T21:21:59.820Z,12.70
2022-09-24T21:24:31.269Z,12.70
2022-09-24T21:26:59.556Z,12.60
2022-09-24T21:29:26.443Z,12.60
2022-09-24T21:31:53.311Z,12.50
2022-09-24T21:34:23.098Z,12.50
2022-09-24T21:36:50.187Z,12.50
2022-09-24T21:39:18.123Z,12.40
2022-09-24T21:41:45.663Z,12.40
2022-09-24T21:44:14.212Z,12.40
2022-09-24T21:46:43.548Z,12.40
2022-09-24T21:49:11.332Z,12.30
2022-09-24T21:51:38.202Z,12.30
2022-09-24T21:54:06.277Z,12.30
2022-09-24T21:56:34.037Z,12.30
2022-09-24T21:59:01.158Z,12.20
2022-09-24T22:01:29.201Z,12.20
2022-09-24T22:03:57.053Z,12.20
2022-09-24T22:06:27.092Z,12.10
2022-09-24T22:08:58.134Z,12.10
2022-09-24T22:11:26.561Z,12.10
2022-09-24T22:13:54.131Z,12.10
2022-09-24T22:16:21.705Z,12.00
2022-09-24T22:18:48.661Z,11.90
2022-09-24T22:21:15.807Z,11.90
2022-09-24T22:23:42.561Z,11.80
2022-09-24T22:26:09.933Z,11.80
2022-09-24T22:28:38.135Z,11.80
2022-09-24T22:31:09.264Z,11.70
2022-09-24T22:33:54.735Z,11.70
2022-09-24T22:36:21.905Z,11.70
2022-09-24T22:38:51.637Z,11.70
2022-09-24T22:41:18.291Z,11.60
2022-09-24T22:43:45.994Z,11.60
2022-09-24T22:46:13.760Z,11.60
2022-09-24T22:48:40.719Z,11.60
2022-09-24T22:51:08.673Z,11.60
2022-09-24T22:53:36.515Z,11.60
2022-09-24T22:56:04.880Z,11.60
2022-09-24T22:58:32.565Z,11.60
2022-09-24T23:01:09.475Z,11.70
2022-09-24T23:03:36.821Z,11.60
2022-09-24T23:06:05.986Z,11.60
2022-09-24T23:08:36.830Z,11.70
2022-09-24T23:11:14.561Z,11.70
2022-09-24T23:13:42.216Z,11.60
2022-09-24T23:16:12.983Z,11.60
2022-09-24T23:18:40.694Z,11.60
2022-09-24T23:21:09.002Z,11.60
2022-09-24T23:23:35.721Z,11.60
2022-09-24T23:26:07.677Z,11.50
2022-09-24T23:28:35.038Z,11.50
2022-09-24T23:31:02.315Z,11.50
2022-09-24T23:33:36.230Z,11.50
2022-09-24T23:36:03.596Z,11.40
2022-09-24T23:38:30.326Z,11.40
2022-09-24T23:40:57.311Z,11.30
2022-09-24T23:43:24.261Z,11.30
2022-09-24T23:45:51.079Z,11.30
2022-09-24T23:48:18.046Z,11.40
2022-09-24T23:50:44.789Z,11.40
2022-09-24T23:53:12.362Z,11.40
2022-09-24T23:55:39.495Z,11.40
2022-09-24T23:58:07.093Z,11.40
